Wetterdaten: Woche 07.05.18 - 13.05.18 (KW19)
Datum Zeit Temp. I. Temp. A. Feuchte I. Feuchte A. Luftdruck Regen Wind Richtung Sonnenschein UV Solar Taupunkt Windchill Windben
07.05.2018 00:00 23,6 C 11,8 C 45 % 65 % 1021,6 hPa 0,0 l/m 1,8 km/h (1 Bft) NO 0,00 h 0,0 UV-I 0 W/m 5,3 C 11,8 C 5,5 km/h (1 Bft)
07.05.2018 01:00 23,4 C 11,5 C 48 % 66 % 1021,4 hPa 0,0 l/m 1,1 km/h (1 Bft) O-NO 0,00 h 0,0 UV-I 0 W/m 5,4 C 11,5 C 3,7 km/h (1 Bft)
07.05.2018 02:00 23,3 C 10,9 C 49 % 69 % 1021,2 hPa 0,0 l/m 6,1 km/h (2 Bft) O-NO 0,00 h 0,0 UV-I 0 W/m 5,5 C 10,2 C 11,8 km/h (2 Bft)
07.05.2018 03:00 23,2 C 10,5 C 51 % 72 % 1021,1 hPa 0,0 l/m 3,0 km/h (1 Bft) NO 0,00 h 0,0 UV-I 0 W/m 5,6 C 10,3 C 7,0 km/h (2 Bft)
07.05.2018 04:00 23,1 C 10,0 C 51 % 75 % 1020,9 hPa 0,0 l/m 2,2 km/h (1 Bft) N-NO 0,00 h 0,0 UV-I 0 W/m 5,7 C 9,9 C 4,5 km/h (1 Bft)
07.05.2018 05:00 23,0 C 9,6 C 52 % 77 % 1020,8 hPa 0,0 l/m 2,0 km/h (1 Bft) N-NO 0,00 h 0,0 UV-I 7 W/m 5,7 C 9,5 C 3,9 km/h (1 Bft)
07.05.2018 06:00 23,2 C 9,8 C 51 % 77 % 1020,7 hPa 0,0 l/m 4,6 km/h (1 Bft) O-NO 0,00 h 0,0 UV-I 17 W/m 5,9 C 9,2 C 8,8 km/h (2 Bft)
07.05.2018 07:00 23,3 C 11,6 C 51 % 72 % 1020,8 hPa 0,0 l/m 1,6 km/h (1 Bft) O-NO 0,83 h 0,7 UV-I 228 W/m 6,8 C 11,6 C 4,5 km/h (1 Bft)
07.05.2018 08:00 23,3 C 14,8 C 46 % 63 % 1020,6 hPa 0,0 l/m 2,3 km/h (1 Bft) O-NO 1,00 h 1,3 UV-I 422 W/m 7,9 C 14,7 C 6,3 km/h (2 Bft)
07.05.2018 09:00 23,1 C 16,8 C 44 % 53 % 1020,3 hPa 0,0 l/m 3,8 km/h (1 Bft) O 1,00 h 2,2 UV-I 570 W/m 7,1 C 16,5 C 11,1 km/h (2 Bft)
07.05.2018 10:00 23,4 C 18,7 C 41 % 49 % 1019,9 hPa 0,0 l/m 5,8 km/h (1 Bft) O-NO 1,00 h 3,5 UV-I 691 W/m 7,7 C 18,1 C 13,2 km/h (3 Bft)
07.05.2018 11:00 23,7 C 20,4 C 41 % 43 % 1019,5 hPa 0,0 l/m 5,8 km/h (1 Bft) NO 1,00 h 4,6 UV-I 779 W/m 7,3 C 20,0 C 13,3 km/h (3 Bft)
07.05.2018 12:00 24,0 C 21,5 C 40 % 36 % 1019,0 hPa 0,0 l/m 3,1 km/h (1 Bft) O-NO 1,00 h 5,2 UV-I 823 W/m 5,9 C 21,3 C 9,0 km/h (2 Bft)
07.05.2018 13:00 24,3 C 23,3 C 40 % 32 % 1018,4 hPa 0,0 l/m 6,2 km/h (2 Bft) O-NO 1,00 h 5,2 UV-I 818 W/m 5,7 C 22,8 C 13,8 km/h (3 Bft)
07.05.2018 14:00 24,4 C 24,0 C 40 % 31 % 1017,8 hPa 0,0 l/m 3,6 km/h (1 Bft) NO 1,00 h 4,6 UV-I 766 W/m 5,6 C 23,8 C 9,2 km/h (2 Bft)
07.05.2018 15:00 24,4 C 24,3 C 40 % 29 % 1017,1 hPa 0,0 l/m 4,9 km/h (1 Bft) NO 1,00 h 3,7 UV-I 679 W/m 5,1 C 24,0 C 12,1 km/h (2 Bft)
07.05.2018 16:00 24,3 C 24,3 C 40 % 29 % 1016,6 hPa 0,0 l/m 6,1 km/h (2 Bft) NO 1,00 h 2,5 UV-I 554 W/m 4,9 C 23,9 C 14,1 km/h (3 Bft)
07.05.2018 17:00 24,2 C 23,4 C 40 % 30 % 1016,2 hPa 0,0 l/m 4,7 km/h (1 Bft) O-NO 1,00 h 1,5 UV-I 401 W/m 4,7 C 23,1 C 12,3 km/h (3 Bft)
07.05.2018 18:00 24,3 C 21,9 C 40 % 35 % 1015,8 hPa 0,0 l/m 5,3 km/h (1 Bft) O-NO 0,03 h 0,8 UV-I 40 W/m 5,7 C 21,5 C 11,5 km/h (2 Bft)
07.05.2018 19:00 24,2 C 20,5 C 42 % 38 % 1015,7 hPa 0,0 l/m 4,2 km/h (1 Bft) NO 0,00 h 0,0 UV-I 22 W/m 5,8 C 20,2 C 9,5 km/h (2 Bft)
07.05.2018 20:00 24,2 C 18,5 C 43 % 43 % 1015,7 hPa 0,0 l/m 0,1 km/h (0 Bft) NO 0,00 h 0,0 UV-I 9 W/m 5,5 C 18,5 C 1,2 km/h (1 Bft)
07.05.2018 21:00 24,2 C 16,7 C 43 % 47 % 1016,0 hPa 0,0 l/m 0,0 km/h (0 Bft) N 0,00 h 0,0 UV-I 0 W/m 5,2 C 16,7 C 0,3 km/h (0 Bft)
07.05.2018 22:00 24,0 C 15,2 C 42 % 55 % 1016,0 hPa 0,0 l/m 0,1 km/h (0 Bft) NO 0,00 h 0,0 UV-I 0 W/m 6,2 C 15,2 C 1,0 km/h (0 Bft)
07.05.2018 23:00 23,9 C 14,6 C 45 % 60 % 1015,9 hPa 0,0 l/m 0,6 km/h (0 Bft) NO 0,00 h 0,0 UV-I 0 W/m 6,9 C 14,6 C 2,9 km/h (1 Bft)
08.05.2018 00:00 23,7 C 13,8 C 47 % 62 % 1015,8 hPa 0,0 l/m 0,7 km/h (0 Bft) NO 0,00 h 0,0 UV-I 0 W/m 6,7 C 13,8 C 2,8 km/h (1 Bft)
08.05.2018 01:00 23,5 C 12,8 C 48 % 64 % 1015,7 hPa 0,0 l/m 0,3 km/h (0 Bft) O-NO 0,00 h 0,0 UV-I 0 W/m 6,3 C 12,8 C 1,5 km/h (1 Bft)
08.05.2018 02:00 23,3 C 11,1 C 49 % 70 % 1015,3 hPa 0,0 l/m 0,1 km/h (0 Bft) N-NO 0,00 h 0,0 UV-I 0 W/m 5,9 C 11,1 C 0,3 km/h (0 Bft)
08.05.2018 03:00 23,2 C 10,7 C 51 % 72 % 1014,9 hPa 0,0 l/m 0,3 km/h (0 Bft) N 0,00 h 0,0 UV-I 0 W/m 5,8 C 10,7 C 1,3 km/h (1 Bft)
08.05.2018 04:00 23,1 C 11,1 C 52 % 71 % 1014,6 hPa 0,0 l/m 0,2 km/h (0 Bft) N-NO 0,00 h 0,0 UV-I 0 W/m 6,0 C 11,1 C 0,9 km/h (0 Bft)
08.05.2018 05:00 23,0 C 10,7 C 53 % 72 % 1014,5 hPa 0,0 l/m 0,0 km/h (0 Bft) N 0,00 h 0,0 UV-I 7 W/m 5,9 C 10,7 C 0,1 km/h (0 Bft)
08.05.2018 06:00 23,1 C 9,1 C 52 % 79 % 1014,2 hPa 0,0 l/m 0,0 km/h (0 Bft) N 0,00 h 0,0 UV-I 17 W/m 5,7 C 9,1 C 0,0 km/h (0 Bft)
08.05.2018 07:00 23,3 C 11,7 C 51 % 73 % 1014,0 hPa 0,0 l/m 0,5 km/h (0 Bft) NO 0,82 h 0,7 UV-I 233 W/m 7,0 C 11,7 C 1,5 km/h (1 Bft)
08.05.2018 08:00 23,3 C 15,9 C 51 % 59 % 1013,6 hPa 0,0 l/m 2,3 km/h (1 Bft) O-NO 1,00 h 1,4 UV-I 424 W/m 7,8 C 15,9 C 6,3 km/h (2 Bft)
08.05.2018 09:00 23,3 C 18,1 C 45 % 51 % 1013,4 hPa 0,0 l/m 3,5 km/h (1 Bft) O-SO 1,00 h 2,2 UV-I 571 W/m 7,7 C 17,9 C 9,5 km/h (2 Bft)
08.05.2018 10:00 23,4 C 19,9 C 43 % 47 % 1013,0 hPa 0,0 l/m 3,3 km/h (1 Bft) O-NO 1,00 h 3,5 UV-I 680 W/m 8,3 C 19,8 C 9,7 km/h (2 Bft)
08.05.2018 11:00 23,8 C 21,3 C 43 % 45 % 1012,5 hPa 0,0 l/m 8,0 km/h (2 Bft) O-NO 1,00 h 4,4 UV-I 759 W/m 8,8 C 20,4 C 19,0 km/h (3 Bft)
08.05.2018 12:00 24,1 C 21,9 C 44 % 42 % 1012,1 hPa 0,0 l/m 7,0 km/h (2 Bft) O-SO 1,00 h 4,9 UV-I 794 W/m 8,6 C 21,3 C 16,5 km/h (3 Bft)
08.05.2018 13:00 24,3 C 22,8 C 44 % 39 % 1011,3 hPa 0,0 l/m 7,4 km/h (2 Bft) O 1,00 h 5,1 UV-I 798 W/m 8,2 C 22,1 C 16,2 km/h (3 Bft)
08.05.2018 14:00 24,4 C 23,4 C 44 % 37 % 1010,5 hPa 0,0 l/m 7,8 km/h (2 Bft) O-SO 1,00 h 4,6 UV-I 768 W/m 7,9 C 22,8 C 17,7 km/h (3 Bft)
08.05.2018 15:00 24,4 C 24,1 C 44 % 37 % 1009,9 hPa 0,0 l/m 6,6 km/h (2 Bft) O-NO 0,98 h 3,4 UV-I 683 W/m 8,4 C 23,5 C 15,2 km/h (3 Bft)
08.05.2018 16:00 24,3 C 23,3 C 45 % 36 % 1009,4 hPa 0,0 l/m 6,2 km/h (2 Bft) O-NO 0,60 h 2,0 UV-I 344 W/m 7,5 C 22,9 C 15,4 km/h (3 Bft)
08.05.2018 17:00 24,3 C 22,4 C 45 % 38 % 1009,1 hPa 0,0 l/m 5,5 km/h (1 Bft) O-NO 0,75 h 1,3 UV-I 305 W/m 7,4 C 22,1 C 13,8 km/h (3 Bft)
08.05.2018 18:00 24,3 C 21,6 C 44 % 41 % 1008,9 hPa 0,0 l/m 8,1 km/h (2 Bft) O-NO 0,02 h 0,7 UV-I 70 W/m 7,7 C 20,8 C 17,8 km/h (3 Bft)
08.05.2018 19:00 24,1 C 20,3 C 43 % 43 % 1008,8 hPa 0,0 l/m 3,8 km/h (1 Bft) O-NO 0,00 h 0,0 UV-I 27 W/m 7,3 C 20,1 C 9,8 km/h (2 Bft)
08.05.2018 20:00 24,1 C 18,7 C 44 % 47 % 1008,8 hPa 0,0 l/m 0,3 km/h (0 Bft) O-NO 0,00 h 0,0 UV-I 11 W/m 7,1 C 18,7 C 1,7 km/h (1 Bft)
08.05.2018 21:00 24,0 C 16,7 C 45 % 54 % 1009,0 hPa 0,0 l/m 0,0 km/h (0 Bft) N 0,00 h 0,0 UV-I 0 W/m 7,2 C 16,7 C 0,0 km/h (0 Bft)
08.05.2018 22:00 23,9 C 15,5 C 46 % 59 % 1008,9 hPa 0,0 l/m 0,0 km/h (0 Bft) N 0,00 h 0,0 UV-I 0 W/m 7,4 C 15,5 C 0,0 km/h (0 Bft)
08.05.2018 23:00 23,8 C 14,8 C 47 % 62 % 1008,9 hPa 0,0 l/m 0,2 km/h (0 Bft) O-NO 0,00 h 0,0 UV-I 0 W/m 7,6 C 14,8 C 0,5 km/h (0 Bft)
09.05.2018 00:00 23,8 C 13,7 C 47 % 67 % 1008,7 hPa 0,0 l/m 0,0 km/h (0 Bft) N 0,00 h 0,0 UV-I 0 W/m 7,6 C 13,7 C 0,0 km/h (0 Bft)
09.05.2018 01:00 23,6 C 12,3 C 49 % 73 % 1008,6 hPa 0,0 l/m 0,0 km/h (0 Bft) N 0,00 h 0,0 UV-I 0 W/m 7,6 C 12,3 C 0,0 km/h (0 Bft)
09.05.2018 02:00 23,4 C 11,4 C 50 % 78 % 1008,2 hPa 0,0 l/m 0,0 km/h (0 Bft) N 0,00 h 0,0 UV-I 0 W/m 7,6 C 11,4 C 0,0 km/h (0 Bft)
09.05.2018 03:00 23,3 C 11,8 C 51 % 78 % 1008,0 hPa 0,0 l/m 0,0 km/h (0 Bft) N 0,00 h 0,0 UV-I 0 W/m 8,1 C 11,8 C 0,0 km/h (0 Bft)
09.05.2018 04:00 23,2 C 12,4 C 52 % 77 % 1007,7 hPa 0,0 l/m 0,0 km/h (0 Bft) N 0,00 h 0,0 UV-I 0 W/m 8,4 C 12,4 C 0,0 km/h (0 Bft)
09.05.2018 05:00 23,2 C 12,5 C 52 % 77 % 1007,5 hPa 0,0 l/m 0,0 km/h (0 Bft) N 0,00 h 0,0 UV-I 12 W/m 8,7 C 12,5 C 0,0 km/h (0 Bft)
09.05.2018 06:00 23,3 C 13,4 C 52 % 77 % 1007,4 hPa 0,0 l/m 0,0 km/h (0 Bft) N 0,00 h 0,0 UV-I 44 W/m 9,4 C 13,4 C 0,3 km/h (0 Bft)
09.05.2018 07:00 23,5 C 14,8 C 51 % 73 % 1007,4 hPa 0,0 l/m 0,0 km/h (0 Bft) N 0,83 h 0,7 UV-I 237 W/m 10,1 C 14,8 C 0,0 km/h (0 Bft)
09.05.2018 08:00 23,5 C 16,8 C 49 % 68 % 1007,3 hPa 0,0 l/m 0,5 km/h (0 Bft) SO 1,00 h 1,3 UV-I 410 W/m 11,0 C 16,8 C 1,6 km/h (1 Bft)
09.05.2018 09:00 23,4 C 18,5 C 48 % 62 % 1007,5 hPa 0,0 l/m 3,0 km/h (1 Bft) SO 1,00 h 2,1 UV-I 544 W/m 11,0 C 18,4 C 6,9 km/h (2 Bft)
09.05.2018 10:00 23,6 C 20,0 C 47 % 55 % 1007,4 hPa 0,0 l/m 3,8 km/h (1 Bft) SO 1,00 h 3,4 UV-I 684 W/m 10,8 C 19,9 C 8,0 km/h (2 Bft)
09.05.2018 11:00 23,9 C 21,2 C 47 % 51 % 1007,2 hPa 0,0 l/m 4,2 km/h (1 Bft) O 1,00 h 3,6 UV-I 562 W/m 10,7 C 21,1 C 9,7 km/h (2 Bft)
09.05.2018 12:00 24,2 C 22,5 C 46 % 47 % 1007,1 hPa 0,0 l/m 7,2 km/h (2 Bft) O-SO 1,00 h 5,1 UV-I 872 W/m 10,7 C 21,9 C 14,1 km/h (3 Bft)
09.05.2018 13:00 24,3 C 23,2 C 46 % 45 % 1006,7 hPa 0,0 l/m 6,7 km/h (2 Bft) O-SO 1,00 h 5,2 UV-I 866 W/m 10,4 C 22,7 C 13,9 km/h (3 Bft)
09.05.2018 14:00 24,4 C 23,0 C 45 % 44 % 1006,2 hPa 0,0 l/m 4,9 km/h (1 Bft) O-SO 0,88 h 3,8 UV-I 632 W/m 10,1 C 22,9 C 11,8 km/h (2 Bft)
09.05.2018 15:00 24,3 C 24,3 C 45 % 43 % 1005,4 hPa 0,0 l/m 4,8 km/h (1 Bft) O-NO 1,00 h 3,3 UV-I 593 W/m 11,0 C 24,0 C 11,3 km/h (2 Bft)
09.05.2018 16:00 24,5 C 22,5 C 45 % 45 % 1005,1 hPa 0,0 l/m 4,0 km/h (1 Bft) O-NO 0,77 h 1,4 UV-I 266 W/m 10,0 C 22,2 C 10,0 km/h (2 Bft)
09.05.2018 17:00 24,7 C 20,6 C 46 % 54 % 1005,3 hPa 0,0 l/m 5,7 km/h (1 Bft) O-NO 0,85 h 1,2 UV-I 258 W/m 10,9 C 20,1 C 13,2 km/h (3 Bft)
09.05.2018 18:00 24,4 C 20,0 C 47 % 53 % 1005,4 hPa 0,0 l/m 2,6 km/h (1 Bft) O-NO 0,10 h 0,7 UV-I 88 W/m 10,1 C 19,8 C 7,5 km/h (2 Bft)
09.05.2018 19:00 24,3 C 18,8 C 48 % 55 % 1005,6 hPa 0,0 l/m 8,0 km/h (2 Bft) O-SO 0,00 h 0,0 UV-I 40 W/m 9,6 C 17,3 C 14,4 km/h (3 Bft)
09.05.2018 20:00 24,3 C 15,6 C 48 % 70 % 1005,5 hPa 0,4 l/m 1,4 km/h (1 Bft) NO 0,00 h 0,0 UV-I 6 W/m 10,1 C 15,5 C 3,5 km/h (1 Bft)
09.05.2018 21:00 24,1 C 14,7 C 49 % 73 % 1005,5 hPa 0,0 l/m 0,3 km/h (0 Bft) O-NO 0,00 h 0,0 UV-I 0 W/m 9,9 C 14,7 C 0,9 km/h (0 Bft)
09.05.2018 22:00 24,0 C 13,7 C 50 % 75 % 1005,9 hPa 0,0 l/m 0,0 km/h (0 Bft) N 0,00 h 0,0 UV-I 0 W/m 9,4 C 13,7 C 0,1 km/h (0 Bft)
09.05.2018 23:00 23,9 C 12,3 C 51 % 84 % 1006,3 hPa 0,0 l/m 0,0 km/h (0 Bft) N 0,00 h 0,0 UV-I 0 W/m 9,7 C 12,3 C 0,0 km/h (0 Bft)
10.05.2018 00:00 23,8 C 11,6 C 52 % 89 % 1006,1 hPa 0,0 l/m 0,0 km/h (0 Bft) N 0,00 h 0,0 UV-I 0 W/m 9,8 C 11,6 C 0,0 km/h (0 Bft)
10.05.2018 01:00 23,6 C 10,7 C 52 % 90 % 1005,6 hPa 0,0 l/m 0,0 km/h (0 Bft) N 0,00 h 0,0 UV-I 0 W/m 9,2 C 10,7 C 0,0 km/h (0 Bft)
10.05.2018 02:00 23,4 C 10,1 C 53 % 91 % 1005,3 hPa 0,0 l/m 0,0 km/h (0 Bft) N 0,00 h 0,0 UV-I 0 W/m 8,7 C 10,1 C 0,0 km/h (0 Bft)
10.05.2018 03:00 23,3 C 9,8 C 54 % 92 % 1005,1 hPa 0,0 l/m 0,0 km/h (0 Bft) N 0,00 h 0,0 UV-I 0 W/m 8,6 C 9,8 C 0,0 km/h (0 Bft)
10.05.2018 04:00 23,2 C 9,2 C 55 % 92 % 1005,3 hPa 0,0 l/m 0,0 km/h (0 Bft) N 0,00 h 0,0 UV-I 0 W/m 8,0 C 9,2 C 0,0 km/h (0 Bft)
10.05.2018 05:00 23,2 C 8,5 C 55 % 93 % 1005,7 hPa 0,0 l/m 0,0 km/h (0 Bft) N 0,00 h 0,0 UV-I 8 W/m 7,5 C 8,5 C 0,0 km/h (0 Bft)
10.05.2018 06:00 23,3 C 8,5 C 55 % 94 % 1005,9 hPa 0,0 l/m 0,0 km/h (0 Bft) N 0,00 h 0,0 UV-I 29 W/m 7,6 C 8,5 C 0,0 km/h (0 Bft)
10.05.2018 07:00 23,4 C 10,7 C 55 % 93 % 1006,1 hPa 0,0 l/m 0,0 km/h (0 Bft) N 0,48 h 0,6 UV-I 142 W/m 9,6 C 10,7 C 0,0 km/h (0 Bft)
10.05.2018 19:00 24,5 C 15,7 C 50 % 74 % 1012,0 hPa 0,0 l/m 0,2 km/h (0 Bft) W 0,00 h 0,0 UV-I 14 W/m 11,1 C 15,7 C 0,9 km/h (0 Bft)
10.05.2018 20:00 24,4 C 14,7 C 51 % 80 % 1012,7 hPa 0,0 l/m 0,2 km/h (0 Bft) SW 0,00 h 0,0 UV-I 9 W/m 11,2 C 14,7 C 1,2 km/h (1 Bft)
10.05.2018 21:00 24,3 C 14,4 C 52 % 83 % 1013,9 hPa 0,0 l/m 0,4 km/h (0 Bft) W 0,00 h 0,0 UV-I 0 W/m 11,5 C 14,4 C 1,6 km/h (1 Bft)
10.05.2018 22:00 24,3 C 14,3 C 52 % 84 % 1015,1 hPa 0,0 l/m 0,1 km/h (0 Bft) W 0,00 h 0,0 UV-I 0 W/m 11,6 C 14,3 C 0,3 km/h (0 Bft)
10.05.2018 23:00 24,2 C 14,1 C 53 % 86 % 1015,8 hPa 0,0 l/m 0,0 km/h (0 Bft) N 0,00 h 0,0 UV-I 0 W/m 11,8 C 14,1 C 0,0 km/h (0 Bft)
11.05.2018 00:00 24,1 C 13,8 C 53 % 86 % 1015,8 hPa 0,0 l/m 0,0 km/h (0 Bft) N 0,00 h 0,0 UV-I 0 W/m 11,5 C 13,8 C 0,0 km/h (0 Bft)
11.05.2018 01:00 23,9 C 13,3 C 54 % 88 % 1015,9 hPa 0,0 l/m 0,2 km/h (0 Bft) W 0,00 h 0,0 UV-I 0 W/m 11,4 C 13,3 C 0,7 km/h (0 Bft)
11.05.2018 02:00 23,8 C 13,3 C 55 % 89 % 1016,4 hPa 0,0 l/m 1,2 km/h (1 Bft) NW 0,00 h 0,0 UV-I 0 W/m 11,5 C 13,3 C 2,7 km/h (1 Bft)
11.05.2018 03:00 23,7 C 13,1 C 55 % 88 % 1016,8 hPa 0,0 l/m 2,1 km/h (1 Bft) W-NW 0,00 h 0,0 UV-I 0 W/m 11,1 C 13,1 C 5,6 km/h (1 Bft)
11.05.2018 04:00 23,7 C 12,7 C 56 % 88 % 1017,1 hPa 0,0 l/m 0,2 km/h (0 Bft) N-NW 0,00 h 0,0 UV-I 0 W/m 10,8 C 12,7 C 1,1 km/h (1 Bft)
11.05.2018 05:00 23,6 C 12,4 C 56 % 89 % 1017,4 hPa 0,0 l/m 2,5 km/h (1 Bft) W-NW 0,00 h 0,0 UV-I 0 W/m 10,7 C 12,4 C 5,5 km/h (1 Bft)
11.05.2018 06:00 23,7 C 12,1 C 55 % 89 % 1017,7 hPa 0,0 l/m 2,5 km/h (1 Bft) NW 0,00 h 0,0 UV-I 21 W/m 10,3 C 12,0 C 5,5 km/h (1 Bft)
11.05.2018 07:00 23,9 C 11,8 C 55 % 89 % 1018,1 hPa 0,0 l/m 2,2 km/h (1 Bft) N 0,00 h 0,0 UV-I 34 W/m 10,0 C 11,7 C 6,2 km/h (2 Bft)
11.05.2018 08:00 23,5 C 11,6 C 55 % 89 % 1018,7 hPa 0,0 l/m 1,1 km/h (1 Bft) NW 0,00 h 0,5 UV-I 51 W/m 9,8 C 11,6 C 3,3 km/h (1 Bft)
11.05.2018 09:00 23,5 C 12,4 C 56 % 87 % 1018,7 hPa 0,0 l/m 1,1 km/h (1 Bft) N-NO 0,40 h 1,0 UV-I 141 W/m 10,2 C 12,4 C 2,9 km/h (1 Bft)
11.05.2018 10:00 24,1 C 13,4 C 53 % 84 % 1018,8 hPa 0,0 l/m 1,3 km/h (1 Bft) N-NO 1,00 h 1,5 UV-I 205 W/m 10,7 C 13,4 C 3,5 km/h (1 Bft)
11.05.2018 11:00 24,2 C 14,2 C 52 % 81 % 1018,6 hPa 0,0 l/m 0,3 km/h (0 Bft) N 0,95 h 1,7 UV-I 209 W/m 10,9 C 14,2 C 1,2 km/h (1 Bft)
11.05.2018 12:00 24,3 C 15,3 C 52 % 77 % 1018,7 hPa 0,0 l/m 0,2 km/h (0 Bft) W 1,00 h 3,0 UV-I 342 W/m 11,2 C 15,3 C 0,5 km/h (0 Bft)
11.05.2018 13:00 24,4 C 15,5 C 52 % 76 % 1018,5 hPa 0,0 l/m 0,4 km/h (0 Bft) S 1,00 h 1,8 UV-I 203 W/m 11,3 C 15,5 C 1,3 km/h (1 Bft)
11.05.2018 14:00 24,5 C 17,1 C 53 % 72 % 1018,0 hPa 0,0 l/m 1,1 km/h (1 Bft) N-NO 1,00 h 3,3 UV-I 410 W/m 12,1 C 17,1 C 2,4 km/h (1 Bft)
11.05.2018 15:00 24,6 C 19,6 C 54 % 62 % 1017,2 hPa 0,0 l/m 0,9 km/h (0 Bft) N-NO 1,00 h 3,8 UV-I 601 W/m 12,2 C 19,6 C 2,8 km/h (1 Bft)
11.05.2018 16:00 24,7 C 19,8 C 54 % 62 % 1016,7 hPa 0,0 l/m 1,4 km/h (1 Bft) O-NO 1,00 h 2,1 UV-I 394 W/m 12,3 C 19,8 C 4,1 km/h (1 Bft)
11.05.2018 17:00 24,7 C 19,8 C 53 % 61 % 1016,2 hPa 0,0 l/m 2,6 km/h (1 Bft) N 0,57 h 1,4 UV-I 266 W/m 12,0 C 19,6 C 5,7 km/h (1 Bft)
11.05.2018 18:00 24,7 C 18,8 C 54 % 66 % 1015,7 hPa 0,0 l/m 1,1 km/h (1 Bft) NO 0,00 h 0,7 UV-I 85 W/m 12,4 C 18,8 C 3,6 km/h (1 Bft)
11.05.2018 19:00 24,6 C 18,3 C 54 % 67 % 1015,6 hPa 0,0 l/m 1,1 km/h (1 Bft) O-NO 0,00 h 0,5 UV-I 39 W/m 12,0 C 18,3 C 3,5 km/h (1 Bft)
11.05.2018 20:00 24,4 C 16,6 C 54 % 75 % 1015,8 hPa 0,0 l/m 0,1 km/h (0 Bft) N-NO 0,00 h 0,0 UV-I 12 W/m 12,0 C 16,6 C 0,8 km/h (0 Bft)
11.05.2018 21:00 24,3 C 15,1 C 54 % 80 % 1016,4 hPa 0,0 l/m 0,0 km/h (0 Bft) N 0,00 h 0,0 UV-I 0 W/m 11,8 C 15,1 C 0,0 km/h (0 Bft)
11.05.2018 22:00 24,2 C 15,1 C 54 % 80 % 1016,7 hPa 0,0 l/m 1,5 km/h (1 Bft) O-NO 0,00 h 0,0 UV-I 0 W/m 11,7 C 15,1 C 4,8 km/h (1 Bft)
11.05.2018 23:00 24,1 C 14,6 C 55 % 81 % 1016,6 hPa 0,0 l/m 1,3 km/h (1 Bft) O-NO 0,00 h 0,0 UV-I 0 W/m 11,4 C 14,6 C 4,1 km/h (1 Bft)
12.05.2018 00:00 24,0 C 14,6 C 55 % 82 % 1016,4 hPa 0,0 l/m 2,8 km/h (1 Bft) O-NO 0,00 h 0,0 UV-I 0 W/m 11,6 C 14,6 C 7,6 km/h (2 Bft)
12.05.2018 01:00 23,9 C 14,1 C 55 % 83 % 1016,4 hPa 0,0 l/m 0,4 km/h (0 Bft) NO 0,00 h 0,0 UV-I 0 W/m 11,3 C 14,1 C 1,8 km/h (1 Bft)
12.05.2018 02:00 23,7 C 13,2 C 55 % 87 % 1016,2 hPa 0,0 l/m 1,0 km/h (0 Bft) N 0,00 h 0,0 UV-I 0 W/m 11,1 C 13,2 C 3,0 km/h (1 Bft)
12.05.2018 03:00 23,6 C 12,9 C 55 % 89 % 1016,0 hPa 0,0 l/m 0,2 km/h (0 Bft) NO 0,00 h 0,0 UV-I 0 W/m 11,1 C 12,9 C 0,7 km/h (0 Bft)
12.05.2018 04:00 23,6 C 12,4 C 56 % 90 % 1016,0 hPa 0,0 l/m 0,1 km/h (0 Bft) N-NO 0,00 h 0,0 UV-I 0 W/m 10,9 C 12,4 C 0,2 km/h (0 Bft)
12.05.2018 05:00 23,4 C 12,8 C 56 % 90 % 1016,0 hPa 0,0 l/m 1,6 km/h (1 Bft) NO 0,00 h 0,0 UV-I 8 W/m 11,2 C 12,8 C 5,0 km/h (1 Bft)
12.05.2018 06:00 23,6 C 13,2 C 55 % 89 % 1016,1 hPa 0,0 l/m 0,1 km/h (0 Bft) NO 0,00 h 0,0 UV-I 36 W/m 11,5 C 13,2 C 0,4 km/h (0 Bft)
12.05.2018 07:00 23,7 C 14,3 C 55 % 88 % 1016,1 hPa 0,0 l/m 0,0 km/h (0 Bft) O 0,58 h 0,7 UV-I 167 W/m 12,3 C 14,3 C 0,2 km/h (0 Bft)
12.05.2018 08:00 23,8 C 16,6 C 55 % 81 % 1016,2 hPa 0,0 l/m 0,5 km/h (0 Bft) O-NO 0,92 h 1,3 UV-I 324 W/m 13,3 C 16,6 C 1,4 km/h (1 Bft)
12.05.2018 09:00 23,9 C 17,5 C 55 % 78 % 1016,2 hPa 0,0 l/m 0,0 km/h (0 Bft) N 1,00 h 1,6 UV-I 246 W/m 13,7 C 17,5 C 0,1 km/h (0 Bft)
12.05.2018 10:00 24,0 C 20,0 C 55 % 71 % 1015,7 hPa 0,0 l/m 0,6 km/h (0 Bft) O-NO 0,98 h 3,1 UV-I 533 W/m 14,5 C 20,0 C 1,9 km/h (1 Bft)
12.05.2018 11:00 24,0 C 21,3 C 54 % 64 % 1015,3 hPa 0,0 l/m 2,1 km/h (1 Bft) SO 1,00 h 2,9 UV-I 426 W/m 14,2 C 21,2 C 5,1 km/h (1 Bft)
12.05.2018 12:00 24,6 C 22,0 C 51 % 58 % 1014,7 hPa 0,0 l/m 3,9 km/h (1 Bft) O-NO 1,00 h 3,1 UV-I 398 W/m 13,3 C 21,9 C 8,4 km/h (2 Bft)
12.05.2018 13:00 24,6 C 21,7 C 49 % 57 % 1014,1 hPa 0,0 l/m 0,4 km/h (0 Bft) NO 1,00 h 2,0 UV-I 209 W/m 12,7 C 21,7 C 1,4 km/h (1 Bft)
12.05.2018 14:00 24,5 C 23,3 C 50 % 53 % 1013,4 hPa 0,0 l/m 2,2 km/h (1 Bft) NO 1,00 h 3,2 UV-I 441 W/m 13,2 C 23,2 C 4,9 km/h (1 Bft)
12.05.2018 15:00 24,6 C 24,3 C 50 % 50 % 1012,6 hPa 0,0 l/m 3,6 km/h (1 Bft) O-NO 0,98 h 2,9 UV-I 521 W/m 13,3 C 24,2 C 8,2 km/h (2 Bft)
12.05.2018 16:00 24,8 C 24,3 C 50 % 49 % 1012,2 hPa 0,0 l/m 3,5 km/h (1 Bft) NO 0,82 h 2,4 UV-I 457 W/m 12,8 C 24,2 C 9,1 km/h (2 Bft)
12.05.2018 17:00 24,7 C 22,9 C 49 % 53 % 1011,8 hPa 0,0 l/m 3,4 km/h (1 Bft) O-NO 0,23 h 1,1 UV-I 137 W/m 12,6 C 22,8 C 8,1 km/h (2 Bft)
12.05.2018 18:00 24,6 C 21,9 C 49 % 54 % 1011,6 hPa 0,0 l/m 1,7 km/h (1 Bft) O-SO 0,00 h 0,6 UV-I 50 W/m 12,3 C 21,9 C 5,1 km/h (1 Bft)
12.05.2018 19:00 24,4 C 20,5 C 50 % 61 % 1011,7 hPa 0,0 l/m 0,6 km/h (0 Bft) W-NW 0,00 h 0,0 UV-I 10 W/m 12,7 C 20,5 C 1,5 km/h (1 Bft)
12.05.2018 20:00 24,5 C 18,0 C 51 % 75 % 1011,8 hPa 0,0 l/m 6,0 km/h (2 Bft) N 0,00 h 0,0 UV-I 8 W/m 13,4 C 17,6 C 11,1 km/h (2 Bft)
12.05.2018 21:00 24,5 C 16,7 C 52 % 79 % 1012,0 hPa 0,0 l/m 1,9 km/h (1 Bft) N 0,00 h 0,0 UV-I 0 W/m 13,0 C 16,7 C 4,5 km/h (1 Bft)
12.05.2018 22:00 24,4 C 15,7 C 53 % 83 % 1012,0 hPa 0,0 l/m 0,0 km/h (0 Bft) N 0,00 h 0,0 UV-I 0 W/m 12,8 C 15,7 C 0,0 km/h (0 Bft)
12.05.2018 23:00 24,4 C 14,7 C 54 % 86 % 1011,7 hPa 0,0 l/m 0,0 km/h (0 Bft) N 0,00 h 0,0 UV-I 0 W/m 12,3 C 14,7 C 0,0 km/h (0 Bft)
13.05.2018 00:00 24,3 C 13,5 C 54 % 89 % 1011,6 hPa 0,0 l/m 0,0 km/h (0 Bft) N 0,00 h 0,0 UV-I 0 W/m 11,7 C 13,5 C 0,0 km/h (0 Bft)
13.05.2018 01:00 24,1 C 13,4 C 55 % 90 % 1011,2 hPa 0,0 l/m 0,3 km/h (0 Bft) NO 0,00 h 0,0 UV-I 0 W/m 11,8 C 13,4 C 2,0 km/h (1 Bft)
13.05.2018 02:00 23,9 C 14,1 C 56 % 87 % 1010,8 hPa 0,0 l/m 2,5 km/h (1 Bft) O-NO 0,00 h 0,0 UV-I 0 W/m 11,9 C 14,1 C 6,6 km/h (2 Bft)
13.05.2018 03:00 23,8 C 14,3 C 57 % 85 % 1010,5 hPa 0,0 l/m 2,1 km/h (1 Bft) O-NO 0,00 h 0,0 UV-I 0 W/m 11,9 C 14,3 C 7,2 km/h (2 Bft)
13.05.2018 04:00 23,7 C 14,1 C 57 % 87 % 1010,2 hPa 0,0 l/m 2,2 km/h (1 Bft) O-NO 0,00 h 0,0 UV-I 0 W/m 11,9 C 14,1 C 7,6 km/h (2 Bft)
13.05.2018 05:00 23,7 C 13,9 C 58 % 88 % 1009,9 hPa 0,0 l/m 6,7 km/h (2 Bft) O-NO 0,00 h 0,0 UV-I 9 W/m 11,9 C 13,3 C 13,8 km/h (3 Bft)
13.05.2018 06:00 23,8 C 13,9 C 58 % 89 % 1009,9 hPa 0,0 l/m 2,2 km/h (1 Bft) O-NO 0,00 h 0,0 UV-I 27 W/m 12,1 C 13,9 C 7,0 km/h (2 Bft)
13.05.2018 07:00 24,0 C 15,5 C 57 % 85 % 1009,7 hPa 0,0 l/m 2,0 km/h (1 Bft) NO 0,72 h 0,7 UV-I 199 W/m 12,9 C 15,5 C 6,1 km/h (2 Bft)
13.05.2018 08:00 24,0 C 18,1 C 56 % 75 % 1009,5 hPa 0,0 l/m 1,7 km/h (1 Bft) O-NO 0,97 h 1,4 UV-I 392 W/m 13,6 C 18,0 C 5,8 km/h (2 Bft)
13.05.2018 09:00 23,9 C 19,9 C 54 % 67 % 1009,3 hPa 0,0 l/m 3,0 km/h (1 Bft) O 1,03 h 2,3 UV-I 544 W/m 13,5 C 19,8 C 9,2 km/h (2 Bft)
13.05.2018 10:00 24,2 C 21,1 C 52 % 62 % 1009,0 hPa 0,0 l/m 7,1 km/h (2 Bft) O-SO 1,00 h 3,6 UV-I 666 W/m 13,7 C 20,5 C 15,6 km/h (3 Bft)
13.05.2018 11:00 24,6 C 22,0 C 51 % 60 % 1008,5 hPa 0,0 l/m 5,5 km/h (1 Bft) O-SO 1,00 h 3,8 UV-I 469 W/m 13,8 C 21,7 C 12,4 km/h (3 Bft)
13.05.2018 12:00 24,7 C 23,0 C 50 % 55 % 1008,0 hPa 0,0 l/m 5,8 km/h (2 Bft) O-SO 1,00 h 4,6 UV-I 554 W/m 13,5 C 22,7 C 13,9 km/h (3 Bft)
13.05.2018 13:00 25,0 C 25,0 C 49 % 48 % 1007,6 hPa 0,0 l/m 7,1 km/h (2 Bft) O 1,00 h 5,1 UV-I 733 W/m 13,1 C 24,6 C 16,1 km/h (3 Bft)
13.05.2018 14:00 25,1 C 24,9 C 47 % 46 % 1007,0 hPa 0,0 l/m 5,7 km/h (1 Bft) O-NO 1,00 h 4,3 UV-I 614 W/m 12,3 C 24,6 C 14,0 km/h (3 Bft)
13.05.2018 15:00 25,2 C 25,8 C 47 % 40 % 1006,2 hPa 0,0 l/m 8,2 km/h (2 Bft) O-NO 0,98 h 3,8 UV-I 662 W/m 11,3 C 25,2 C 16,6 km/h (3 Bft)
13.05.2018 16:00 25,0 C 26,1 C 46 % 36 % 1005,7 hPa 0,0 l/m 8,9 km/h (2 Bft) O-NO 1,00 h 2,7 UV-I 564 W/m 9,8 C 25,5 C 17,9 km/h (3 Bft)
13.05.2018 17:00 24,9 C 25,1 C 44 % 38 % 1005,6 hPa 0,0 l/m 7,9 km/h (2 Bft) O-NO 0,93 h 1,5 UV-I 367 W/m 9,6 C 24,5 C 16,3 km/h (3 Bft)
13.05.2018 18:00 24,7 C 23,0 C 43 % 44 % 1005,2 hPa 0,0 l/m 5,1 km/h (1 Bft) O-NO 0,00 h 0,7 UV-I 110 W/m 10,1 C 22,6 C 12,5 km/h (3 Bft)
13.05.2018 19:00 24,6 C 21,8 C 46 % 53 % 1005,0 hPa 0,0 l/m 2,7 km/h (1 Bft) O-NO 0,00 h 0,5 UV-I 84 W/m 11,6 C 21,6 C 8,1 km/h (2 Bft)
13.05.2018 20:00 24,6 C 21,2 C 47 % 54 % 1005,3 hPa 0,0 l/m 4,8 km/h (1 Bft) O-NO 0,00 h 0,0 UV-I 21 W/m 11,4 C 20,9 C 11,1 km/h (2 Bft)
13.05.2018 21:00 24,7 C 20,2 C 48 % 55 % 1005,8 hPa 0,0 l/m 3,4 km/h (1 Bft) O-NO 0,00 h 0,0 UV-I 0 W/m 10,8 C 20,0 C 8,9 km/h (2 Bft)
13.05.2018 22:00 24,6 C 19,6 C 49 % 53 % 1006,1 hPa 0,0 l/m 4,3 km/h (1 Bft) O-NO 0,00 h 0,0 UV-I 0 W/m 9,9 C 19,3 C 10,1 km/h (2 Bft)
13.05.2018 23:00 24,6 C 18,3 C 49 % 56 % 1006,1 hPa 0,0 l/m 6,7 km/h (2 Bft) O-NO 0,00 h 0,0 UV-I 0 W/m 9,5 C 17,8 C 14,4 km/h (3 Bft)
Min-Datum _ 07.05.18 10.05.18 07.05.18 07.05.18 09.05.18 - 07.05.18 - - - - 07.05.18 07.05.18 07.05.18
_ Min-Zeit 09:00 05:54 18:07 15:20 15:54 - 00:00 - - - - 15:20 02:14 00:00
Minimum _ 22,8 C 8,2 C 39 % 26 % 1004,9 hPa - 0,0 km/h (0 Bft) - - - - 3,4 C 6,4 C 0,0 km/h (0 Bft)
Max-Datum _ 13.05.18 13.05.18 13.05.18 10.05.18 07.05.18 09.05.18 08.05.18 - 10.05.18 13.05.18 09.05.18 12.05.18 13.05.18 08.05.18
_ Max-Zeit 14:34 15:34 04:54 05:30 00:00 20:02 14:07 - 07:49 12:54 13:05 11:03 15:34 14:08
Maximum _ 25,2 C 26,6 C 58 % 94 % 1021,7 hPa 0,4 l/m 20,9 km/h
O-SO (4 Bft)
- 0,08 h 6,0 UV-I 976 W/m 16,0 C 26,6 C 37,0 km/h
O (5 Bft)
Durchschnitt _ 24,0 C 16,8 C 50 % 66 % 1012,5 hPa #0,4 l/m 2,4 km/h (1 Bft) O-NO #60:01 h 2,5 UV-I 326 W/m 9,8 C 16,6 C 5,8 km/h (2 Bft)